sensor_id;sensor_type;location;lat;lon;timestamp;P1;P4;P2;P0;N10;N4;N25;N1;N05;TS
45310;SPS30;31049;51.540;5.852;2023-01-23T00:13:03;15.73;;16.8;15.54;11490.6;;8191.2;8003.7;11486.8;
45310;SPS30;31049;51.540;5.852;2023-01-23T00:29:34;15.49;;16.58;15.38;11207.1;;7908.0;7722.8;11203.3;
45310;SPS30;31049;51.540;5.852;2023-01-23T00:44:34;35.0;;31.4;27.4;8944.1;8935.7;5614.8;5247.5;;
45310;SPS30;31049;51.540;5.852;2023-01-23T00:58:22;17.29;;17.67;16.03;12153.8;;8841.4;8574.7;12148.0;
45310;SPS30;31049;51.540;5.852;2023-01-23T01:12:50;16.15;;17.01;15.65;11658.8;;8355.9;8146.7;11654.4;
45310;SPS30;31049;51.540;5.852;2023-01-23T01:27:09;16.09;;17.07;15.87;11987.3;;8688.9;8505.8;11983.6;
45310;SPS30;31049;51.540;5.852;2023-01-23T01:41:08;15.19;;16.47;15.43;11334.4;;8041.0;7889.5;11331.5;
45310;SPS30;31049;51.540;5.852;2023-01-23T01:54:57;15.67;;16.58;15.27;11064.2;;7761.8;7556.8;11059.9;
45310;SPS30;31049;51.540;5.852;2023-01-23T02:08:46;16.51;;17.01;15.49;11414.1;;8104.6;7856.6;11408.7;
45310;SPS30;31049;51.540;5.852;2023-01-23T02:22:44;14.65;;16.03;15.05;10780.3;;7488.0;7344.3;10777.6;
45310;SPS30;31049;51.540;5.852;2023-01-23T02:37:34;15.19;;16.41;15.32;11142.7;;7847.5;7685.5;11139.5;
45310;SPS30;31049;51.540;5.852;2023-01-23T02:52:34;16.15;;16.85;15.43;11317.0;;8011.2;7785.4;11312.2;
45310;SPS30;31049;51.540;5.852;2023-01-23T03:06:22;17.59;;17.72;15.92;12012.4;;8694.7;8396.6;12005.8;
45310;SPS30;31049;51.540;5.852;2023-01-23T03:20:11;14.71;;15.98;14.94;10574.4;;7279.2;7118.5;10571.2;
45310;SPS30;31049;51.540;5.852;2023-01-23T03:34:00;34.6;;31.3;27.6;9098.6;9090.9;5774.4;5437.2;;
45310;SPS30;31049;51.540;5.852;2023-01-23T03:47:48;34.0;;31.4;28.1;9513.4;9507.1;6197.9;5910.9;;
45310;SPS30;31049;51.540;5.852;2023-01-23T04:01:37;16.21;;17.12;15.81;11872.1;;8570.4;8367.6;11867.9;
45310;SPS30;31049;51.540;5.852;2023-01-23T04:15:55;16.81;;17.18;15.49;11411.9;;8098.0;7823.9;11405.8;
45310;SPS30;31049;51.540;5.852;2023-01-23T04:30:14;16.33;;17.07;15.6;11586.6;;8280.5;8052.2;11581.7;
45310;SPS30;31049;51.540;5.852;2023-01-23T04:44:03;15.91;;16.85;15.6;11521.1;;8220.3;8024.5;11517.0;
45310;SPS30;31049;51.540;5.852;2023-01-23T04:57:51;16.15;;16.85;15.43;11301.0;;7994.8;7766.9;11296.1;
45310;SPS30;31049;51.540;5.852;2023-01-23T05:11:40;16.21;;16.8;15.32;11127.3;;7818.5;7575.3;11122.0;
45310;SPS30;31049;51.540;5.852;2023-01-23T05:26:30;16.99;;17.18;15.38;11222.1;;7904.0;7605.5;11215.4;
45310;SPS30;31049;51.540;5.852;2023-01-23T05:41:58;17.05;;17.39;15.76;11771.1;;8457.6;8184.6;11765.1;
45310;SPS30;31049;51.540;5.852;2023-01-23T05:56:18;34.6;;31.0;27.1;8703.6;8695.3;5375.2;5013.7;;
45310;SPS30;31049;51.540;5.852;2023-01-23T06:10:06;16.27;;16.9;15.49;11376.8;;8069.9;7837.9;11371.8;
45310;SPS30;31049;51.540;5.852;2023-01-23T06:24:34;15.73;;16.69;15.43;11289.8;;7989.2;7794.6;11285.8;
45310;SPS30;31049;51.540;5.852;2023-01-23T06:38:53;16.21;;16.69;15.05;10728.8;;7415.6;7148.2;10722.8;
45310;SPS30;31049;51.540;5.852;2023-01-23T06:52:42;13.87;;15.21;14.12;9412.4;;6116.5;5954.5;9409.2;
45310;SPS30;31049;51.540;5.852;2023-01-23T07:06:31;14.83;;15.49;13.96;9114.2;;5803.3;5553.1;9108.6;
45310;SPS30;31049;51.540;5.852;2023-01-23T07:21:21;14.35;;15.49;14.34;9690.3;;6391.1;6209.3;9686.5;
45310;SPS30;31049;51.540;5.852;2023-01-23T07:36:20;14.05;;15.65;14.83;10402.6;;7114.4;6995.8;10400.5;
45310;SPS30;31049;51.540;5.852;2023-01-23T07:50:09;14.35;;15.43;14.18;9491.8;;6190.8;5998.7;9487.8;
45310;SPS30;31049;51.540;5.852;2023-01-23T08:03:57;14.53;;15.76;14.62;10135.6;;6838.9;6670.0;10132.2;
45310;SPS30;31049;51.540;5.852;2023-01-23T08:18:15;14.95;;16.14;15.05;10745.3;;7448.6;7279.1;10741.9;
45310;SPS30;31049;51.540;5.852;2023-01-23T08:32:34;16.15;;17.29;16.2;12410.8;;9115.5;8950.0;12407.6;
45310;SPS30;31049;51.540;5.852;2023-01-23T08:46:33;16.51;;16.9;15.27;11089.8;;7776.6;7507.4;11083.8;
45310;SPS30;31049;51.540;5.852;2023-01-23T09:00:32;17.53;;17.99;16.41;12767.2;;9458.0;9208.4;12761.8;
45310;SPS30;31049;51.540;5.852;2023-01-23T09:14:21;15.73;;16.85;15.71;11714.8;;8418.4;8247.7;11711.4;
45310;SPS30;31049;51.540;5.852;2023-01-23T09:28:38;14.47;;15.81;14.78;10368.3;;7074.4;6922.0;10365.3;
45310;SPS30;31049;51.540;5.852;2023-01-23T09:42:57;12.73;;14.34;13.47;8453.6;;5163.2;5036.4;8451.2;
45310;SPS30;31049;51.540;5.852;2023-01-23T09:56:46;15.25;;15.49;13.63;8661.2;;5340.3;5031.5;8654.1;
45310;SPS30;31049;51.540;5.852;2023-01-23T10:11:04;10.81;;12.65;11.89;6054.0;;2764.5;2649.6;6051.8;
45310;SPS30;31049;51.540;5.852;2023-01-23T10:25:23;13.33;;13.91;12.27;6661.1;;3345.0;3069.6;6654.8;
45310;SPS30;31049;51.540;5.852;2023-01-23T10:39:12;11.35;;12.76;11.73;5812.2;;2513.7;2345.5;5808.6;
45310;SPS30;31049;51.540;5.852;2023-01-23T10:53:40;11.29;;12.76;11.67;5796.0;;2497.7;2330.8;5792.4;
45310;SPS30;31049;51.540;5.852;2023-01-23T11:08:28;10.75;;12.49;11.67;5721.5;;2429.2;2297.9;5718.9;
45310;SPS30;31049;51.540;5.852;2023-01-23T11:22:47;9.91;;12.05;11.51;5518.4;;2234.9;2157.1;5517.1;
45310;SPS30;31049;51.540;5.852;2023-01-23T11:36:36;11.53;;13.09;12.11;6385.3;;3089.4;2935.4;6382.1;
45310;SPS30;31049;51.540;5.852;2023-01-23T11:50:24;11.23;;12.76;11.78;5920.2;;2623.8;2467.8;5916.9;
45310;SPS30;31049;51.540;5.852;2023-01-23T12:04:23;10.09;;12.16;11.56;5584.4;;2299.2;2210.3;5582.9;
45310;SPS30;31049;51.540;5.852;2023-01-23T12:18:41;10.33;;12.27;11.56;5632.7;;2344.9;2240.9;5630.7;
45310;SPS30;31049;51.540;5.852;2023-01-23T12:33:29;9.19;;11.4;10.85;11096.2;;7812.8;7737.5;11094.9;
45310;SPS30;31049;51.540;5.852;2023-01-23T12:47:48;10.63;;11.78;10.47;10543.4;;7235.9;7018.9;10538.4;
45310;SPS30;31049;51.540;5.852;2023-01-23T13:01:47;8.59;;10.8;10.2;10155.4;;6870.3;6786.9;10153.9;
45310;SPS30;31049;51.540;5.852;2023-01-23T13:15:36;9.91;;11.45;10.42;10483.2;;7184.0;7016.4;10479.5;
45310;SPS30;31049;51.540;5.852;2023-01-23T13:29:54;10.21;;12.11;11.35;11794.6;;8504.4;8386.9;11792.3;
45310;SPS30;31049;51.540;5.852;2023-01-23T13:44:13;9.73;;11.67;10.91;11225.6;;7936.7;7828.6;11223.4;
45310;SPS30;31049;51.540;5.852;2023-01-23T13:59:03;11.59;;13.14;12.16;6485.1;;3190.0;3040.1;6482.0;
45310;SPS30;31049;51.540;5.852;2023-01-23T14:15:03;8.71;;10.96;10.42;10438.1;;7154.1;7076.7;10436.8;
45310;SPS30;31049;51.540;5.852;2023-01-23T14:30:32;9.61;;11.35;10.42;10456.6;;7161.3;7016.8;10453.5;
45310;SPS30;31049;51.540;5.852;2023-01-23T14:44:51;8.53;;10.58;9.93;9741.5;;6453.3;6352.7;9739.5;
45310;SPS30;31049;51.540;5.852;2023-01-23T14:58:40;9.97;;11.35;10.2;10156.4;;6853.6;6665.1;10152.1;
45310;SPS30;31049;51.540;5.852;2023-01-23T15:12:57;9.55;;11.35;10.53;10613.7;;7320.4;7187.7;10610.9;
45310;SPS30;31049;51.540;5.852;2023-01-23T15:27:16;10.45;;11.73;10.53;10598.2;;7293.6;7093.9;10593.6;
45310;SPS30;31049;51.540;5.852;2023-01-23T15:42:06;8.89;;10.91;10.26;10194.6;;6906.3;6804.0;10192.6;
45310;SPS30;31049;51.540;5.852;2023-01-23T15:57:06;7.69;;10.2;9.82;9577.1;;6297.6;6249.0;9576.5;
45310;SPS30;31049;51.540;5.852;2023-01-23T16:11:24;9.49;;11.29;10.47;10552.6;;7260.0;7131.6;10550.0;
45310;SPS30;31049;51.540;5.852;2023-01-23T16:25:43;12.01;;13.03;11.67;12351.6;;9044.4;8824.7;12346.6;
45310;SPS30;31049;51.540;5.852;2023-01-23T16:39:42;9.07;;11.29;10.75;10944.2;;7660.6;7584.9;10942.9;
45310;SPS30;31049;51.540;5.852;2023-01-23T16:53:40;8.35;;10.69;10.26;10199.6;;6917.7;6853.9;10198.6;
45310;SPS30;31049;51.540;5.852;2023-01-23T17:09:02;9.79;;11.67;10.96;11245.5;;7955.6;7841.4;11243.3;
45310;SPS30;31049;51.540;5.852;2023-01-23T17:24:32;11.17;;12.87;12.0;6273.6;;2981.6;2850.8;6271.0;
45310;SPS30;31049;51.540;5.852;2023-01-23T17:38:21;11.65;;13.31;12.49;6937.1;;3645.7;3517.2;6934.6;
45310;SPS30;31049;51.540;5.852;2023-01-23T17:52:09;12.49;;13.25;11.78;5940.8;;2628.9;2381.0;5935.1;
45310;SPS30;31049;51.540;5.852;2023-01-23T18:06:27;10.87;;12.82;12.16;6458.8;;3172.8;3077.5;6457.1;
45310;SPS30;31049;51.540;5.852;2023-01-23T18:20:46;11.77;;13.2;12.11;6432.6;;3134.7;2968.5;6429.1;
45310;SPS30;31049;51.540;5.852;2023-01-23T18:34:35;12.49;;13.58;12.33;6727.3;;3422.7;3216.0;6722.7;
45310;SPS30;31049;51.540;5.852;2023-01-23T18:49:03;10.69;;12.54;11.73;5836.0;;2545.7;2426.1;5833.6;
45310;SPS30;31049;51.540;5.852;2023-01-23T19:03:22;10.09;;12.11;11.45;12007.2;;8720.6;8624.4;12005.4;
45310;SPS30;31049;51.540;5.852;2023-01-23T19:17:11;10.99;;12.71;11.89;6046.6;;2754.6;2624.5;6044.0;
45310;SPS30;31049;51.540;5.852;2023-01-23T19:30:59;10.51;;12.38;11.62;5667.6;;2378.1;2263.4;5665.4;
45310;SPS30;31049;51.540;5.852;2023-01-23T19:44:48;11.05;;12.54;11.51;12059.3;;8761.6;8598.8;12055.8;
45310;SPS30;31049;51.540;5.852;2023-01-23T19:59:38;10.27;;12.27;11.62;5651.1;;2364.2;2265.6;5649.3;
45310;SPS30;31049;51.540;5.852;2023-01-23T20:15:39;10.45;;12.38;11.67;5733.1;;2445.1;2339.2;5731.1;
45310;SPS30;31049;51.540;5.852;2023-01-23T20:30:38;12.01;;13.31;12.16;6499.4;;3198.6;3015.0;6495.4;
45310;SPS30;31049;51.540;5.852;2023-01-23T20:44:27;10.51;;12.44;11.67;5761.2;;2472.4;2362.4;5759.1;
45310;SPS30;31049;51.540;5.852;2023-01-23T20:58:45;11.17;;12.87;12.0;6245.5;;2953.3;2821.1;6242.9;
45310;SPS30;31049;51.540;5.852;2023-01-23T21:13:04;11.83;;13.42;12.49;6960.9;;3667.3;3525.4;6958.0;
45310;SPS30;31049;51.540;5.852;2023-01-23T21:27:02;12.43;;13.91;12.93;7648.0;;4353.4;4203.5;7645.0;
45310;SPS30;31049;51.540;5.852;2023-01-23T21:42:25;12.79;;14.07;12.98;7680.4;;4381.8;4208.0;7676.8;
45310;SPS30;31049;51.540;5.852;2023-01-23T21:57:54;13.39;;14.45;13.2;7986.0;;4682.6;4480.3;7981.6;
45310;SPS30;31049;51.540;5.852;2023-01-23T22:11:43;11.17;;12.82;11.94;6195.4;;2902.8;2768.5;6192.7;
45310;SPS30;31049;51.540;5.852;2023-01-23T22:25:32;11.71;;13.03;11.89;6116.6;;2815.9;2633.9;6112.6;
45310;SPS30;31049;51.540;5.852;2023-01-23T22:39:30;10.21;;12.16;11.51;5498.9;;2211.6;2110.9;5497.0;
45310;SPS30;31049;51.540;5.852;2023-01-23T22:54:31;10.93;;12.54;11.67;5727.3;;2432.7;2287.8;5724.3;
45310;SPS30;31049;51.540;5.852;2023-01-23T23:09:59;10.51;;12.44;11.78;5893.5;;2606.3;2505.2;5891.7;
45310;SPS30;31049;51.540;5.852;2023-01-23T23:24:18;11.29;;12.54;11.35;11826.9;;8523.2;8325.2;11822.5;
45310;SPS30;31049;51.540;5.852;2023-01-23T23:38:46;10.33;;12.27;11.62;5680.3;;2393.6;2295.8;5678.6;
45310;SPS30;31049;51.540;5.852;2023-01-23T23:53:34;9.01;;11.24;10.69;10886.2;;7602.5;7525.8;10884.9;
